Time;durP1;ratioP1;P1;durP2;ratioP2;P2;SDS_P1;SDS_P2;PMS_P1;PMS_P2;Temp;Humidity;BMP_temperature;BMP_pressure;BME280_temperature;BME280_humidity;BME280_pressure;Samples;Min_cycle;Max_cycle;Signal;HPM_P1;HPM_P2
2021/09/17 00:00:33;;;;;;;4.78;3.38;;;24.90;54.60;;;;;;5004365;28;20041;-75
2021/09/17 00:03:01;;;;;;;3.13;2.83;;;24.90;54.60;;;;;;5002128;28;20412;-77
2021/09/17 00:05:29;;;;;;;4.20;3.17;;;24.90;54.60;;;;;;5010814;28;20751;-77
2021/09/17 00:07:56;;;;;;;4.32;3.33;;;24.90;54.60;;;;;;5010745;28;20050;-77
2021/09/17 00:10:24;;;;;;;3.80;3.30;;;24.90;54.60;;;;;;5004574;28;20077;-75
2021/09/17 00:12:51;;;;;;;8.27;3.03;;;24.90;54.50;;;;;;5004650;28;20054;-76
2021/09/17 00:15:19;;;;;;;4.18;3.15;;;24.90;54.50;;;;;;5010100;28;20526;-77
2021/09/17 00:17:46;;;;;;;6.30;3.40;;;24.90;54.50;;;;;;5010380;28;20133;-78
2021/09/17 00:20:16;;;;;;;5.30;3.08;;;25.00;54.50;;;;;;5005196;28;20046;-78
2021/09/17 00:22:45;;;;;;;4.82;2.92;;;24.90;54.40;;;;;;5003911;28;20470;-78
2021/09/17 00:25:13;;;;;;;3.88;3.03;;;25.00;54.40;;;;;;5010081;28;20129;-78
2021/09/17 00:27:40;;;;;;;4.47;2.90;;;25.00;54.40;;;;;;5009591;28;20042;-78
2021/09/17 00:30:10;;;;;;;4.88;2.90;;;25.00;54.40;;;;;;5005606;28;20056;-75
2021/09/17 00:32:37;;;;;;;3.20;2.75;;;25.00;54.40;;;;;;5002682;28;20045;-77
2021/09/17 00:35:05;;;;;;;3.75;3.38;;;25.00;54.40;;;;;;5009839;28;20052;-77
2021/09/17 00:37:33;;;;;;;3.53;3.05;;;25.00;54.40;;;;;;5010141;28;20085;-77
2021/09/17 00:40:00;;;;;;;4.07;3.30;;;24.90;54.40;;;;;;4989415;28;20077;-78
2021/09/17 00:42:27;;;;;;;3.10;2.80;;;24.90;54.40;;;;;;5002097;28;20050;-78
2021/09/17 00:44:54;;;;;;;3.17;2.88;;;24.90;54.40;;;;;;5010284;28;20081;-78
2021/09/17 00:47:21;;;;;;;4.20;3.45;;;24.90;54.40;;;;;;5010150;28;20049;-74
2021/09/17 00:50:15;;;;;;;6.75;3.53;;;24.90;54.40;;;;;;5006070;28;20092;-74
2021/09/17 00:52:43;;;;;;;3.85;3.00;;;24.90;54.40;;;;;;4985612;28;20109;-77
2021/09/17 00:55:11;;;;;;;4.32;3.17;;;24.90;54.40;;;;;;5010131;28;20053;-75
2021/09/17 00:57:38;;;;;;;3.15;2.85;;;24.90;54.40;;;;;;5009211;28;20053;-75
2021/09/17 01:00:12;;;;;;;4.03;2.50;;;24.90;54.40;;;;;;5004683;28;20042;-74
2021/09/17 01:02:40;;;;;;;3.65;2.85;;;24.90;54.40;;;;;;5000881;28;20085;-77
2021/09/17 01:05:10;;;;;;;3.15;2.83;;;24.90;54.40;;;;;;5009600;28;20466;-77
2021/09/17 01:07:37;;;;;;;4.65;2.78;;;24.90;54.40;;;;;;5009261;28;20041;-77
2021/09/17 01:10:07;;;;;;;5.15;3.42;;;24.90;54.40;;;;;;5004193;28;20734;-77
2021/09/17 01:12:36;;;;;;;5.53;2.95;;;24.90;54.40;;;;;;5003677;28;20101;-77
2021/09/17 01:15:09;;;;;;;3.33;3.03;;;24.90;54.40;;;;;;4992245;28;20683;-77
2021/09/17 01:17:40;;;;;;;4.30;3.30;;;24.90;54.40;;;;;;5009784;28;20054;-77
2021/09/17 01:20:10;;;;;;;4.22;2.78;;;24.90;54.40;;;;;;5005497;28;20046;-74
2021/09/17 01:22:38;;;;;;;4.22;3.28;;;24.90;54.40;;;;;;4986751;28;20136;-77
2021/09/17 01:25:08;;;;;;;5.07;3.15;;;24.90;54.40;;;;;;4999201;28;20069;-78
2021/09/17 01:27:35;;;;;;;3.42;2.53;;;24.90;54.40;;;;;;5014121;28;20061;-78
2021/09/17 01:30:17;;;;;;;2.83;2.53;;;24.90;54.40;;;;;;5017300;28;20077;-74
2021/09/17 01:32:46;;;;;;;4.40;3.30;;;24.90;54.40;;;;;;5009396;28;20132;-78
2021/09/17 01:35:15;;;;;;;5.03;3.13;;;24.90;54.40;;;;;;5009055;28;20052;-77
2021/09/17 01:37:43;;;;;;;4.00;2.83;;;24.90;54.40;;;;;;5008849;28;20132;-77
2021/09/17 01:40:11;;;;;;;4.05;2.70;;;24.90;54.40;;;;;;5002849;28;20049;-75
2021/09/17 01:42:39;;;;;;;3.13;2.80;;;24.90;54.40;;;;;;5002922;28;20125;-77
2021/09/17 01:45:09;;;;;;;3.78;3.08;;;24.90;54.40;;;;;;5008604;28;20075;-78
2021/09/17 01:47:36;;;;;;;5.57;3.00;;;24.90;54.40;;;;;;5009019;28;20398;-78
2021/09/17 01:50:13;;;;;;;6.38;2.63;;;24.90;54.30;;;;;;4987822;28;20049;-75
2021/09/17 01:52:41;;;;;;;2.88;2.65;;;24.90;54.30;;;;;;5000883;28;20042;-77
2021/09/17 01:55:09;;;;;;;7.88;2.95;;;24.90;54.30;;;;;;5008990;28;20050;-77
2021/09/17 01:57:36;;;;;;;5.40;3.00;;;24.90;54.30;;;;;;5008460;28;20154;-78
2021/09/17 02:00:17;;;;;;;3.88;2.83;;;24.90;54.30;;;;;;4986852;28;20088;-75
2021/09/17 02:02:44;;;;;;;3.63;3.30;;;24.90;54.30;;;;;;5002078;28;20085;-77
2021/09/17 02:05:11;;;;;;;5.57;3.30;;;24.90;54.40;;;;;;5008735;28;20073;-78
2021/09/17 02:07:39;;;;;;;4.35;2.60;;;24.90;54.30;;;;;;4991457;28;20128;-77
2021/09/17 02:10:07;;;;;;;6.72;3.50;;;24.90;54.30;;;;;;5004609;28;20120;-74
2021/09/17 02:12:34;;;;;;;5.72;3.10;;;24.90;54.30;;;;;;5000499;28;20132;-78
2021/09/17 02:15:04;;;;;;;3.60;2.22;;;24.90;54.40;;;;;;5008813;28;20050;-77
2021/09/17 02:17:31;;;;;;;4.35;3.42;;;24.90;54.40;;;;;;5008388;28;20104;-77
2021/09/17 02:19:58;;;;;;;4.10;2.78;;;24.90;54.40;;;;;;4986071;28;20097;-75
2021/09/17 02:22:26;;;;;;;3.50;2.53;;;24.90;54.40;;;;;;5000182;28;20060;-77
2021/09/17 02:24:54;;;;;;;8.52;2.78;;;24.90;54.40;;;;;;5008127;28;20136;-77
2021/09/17 02:27:22;;;;;;;5.47;2.97;;;24.90;54.40;;;;;;4990965;28;20120;-78
2021/09/17 02:29:49;;;;;;;4.13;3.00;;;24.90;54.40;;;;;;5005703;28;20104;-78
2021/09/17 02:32:16;;;;;;;4.47;2.95;;;24.90;54.40;;;;;;5000673;28;20042;-79
2021/09/17 02:34:44;;;;;;;5.15;3.38;;;24.90;54.40;;;;;;5007967;28;20072;-78
2021/09/17 02:37:12;;;;;;;5.88;3.05;;;24.90;54.40;;;;;;4990925;28;20050;-77
2021/09/17 02:39:39;;;;;;;4.07;3.58;;;24.90;54.40;;;;;;4988665;28;20034;-74
2021/09/17 02:42:06;;;;;;;4.15;2.90;;;24.90;54.40;;;;;;4981217;28;20640;-78
2021/09/17 02:44:33;;;;;;;4.35;2.88;;;24.90;54.40;;;;;;5008195;28;20050;-78
2021/09/17 02:47:01;;;;;;;5.43;3.75;;;24.90;54.40;;;;;;5008717;28;20050;-78
2021/09/17 02:49:58;;;;;;;4.32;2.83;;;24.90;54.40;;;;;;5006875;28;20054;-74
2021/09/17 02:52:25;;;;;;;2.83;2.55;;;24.90;54.40;;;;;;4982352;28;20771;-77
2021/09/17 02:54:52;;;;;;;3.33;2.92;;;24.90;54.40;;;;;;5008259;28;20081;-78
2021/09/17 02:57:19;;;;;;;6.60;3.20;;;24.90;54.40;;;;;;5007998;28;20294;-78
2021/09/17 02:59:46;;;;;;;3.28;2.70;;;24.90;54.40;;;;;;5005808;28;20153;-75
2021/09/17 03:02:15;;;;;;;3.90;2.92;;;24.90;54.40;;;;;;4992843;28;20141;-78
2021/09/17 03:04:43;;;;;;;4.90;3.25;;;24.90;54.40;;;;;;5008038;28;20053;-78
2021/09/17 03:07:10;;;;;;;6.05;3.28;;;24.90;54.40;;;;;;5008343;28;20058;-78
2021/09/17 03:09:37;;;;;;;4.65;2.92;;;24.80;54.30;;;;;;5006920;28;20103;-75
2021/09/17 03:12:05;;;;;;;4.40;2.95;;;24.90;54.40;;;;;;5006215;28;20084;-74
2021/09/17 03:14:33;;;;;;;2.65;2.50;;;24.90;54.40;;;;;;5007906;28;20115;-78
2021/09/17 03:17:00;;;;;;;3.90;2.90;;;24.90;54.40;;;;;;4990241;28;20606;-77
2021/09/17 03:19:35;;;;;;;5.88;3.10;;;24.90;54.30;;;;;;5007557;28;20133;-74
2021/09/17 03:22:03;;;;;;;3.70;2.75;;;24.90;54.30;;;;;;5005523;28;20046;-78
2021/09/17 03:24:30;;;;;;;3.47;2.70;;;24.90;54.30;;;;;;4990653;28;20554;-77
2021/09/17 03:26:57;;;;;;;4.75;2.70;;;24.90;54.30;;;;;;4990430;28;20054;-78
2021/09/17 03:29:24;;;;;;;5.20;2.75;;;24.90;54.30;;;;;;5007044;28;20072;-77
2021/09/17 03:31:51;;;;;;;3.25;2.53;;;24.90;54.20;;;;;;5008430;28;20045;-78
2021/09/17 03:34:18;;;;;;;3.30;2.47;;;24.90;54.20;;;;;;5010946;28;20106;-78
2021/09/17 03:36:46;;;;;;;3.35;2.65;;;24.90;54.30;;;;;;5023642;28;20182;-78
2021/09/17 03:39:15;;;;;;;3.50;2.70;;;24.90;54.30;;;;;;4993820;28;20080;-75
2021/09/17 03:41:45;;;;;;;3.38;2.47;;;24.90;54.30;;;;;;5007255;28;20080;-78
2021/09/17 03:44:13;;;;;;;4.38;2.45;;;24.90;54.30;;;;;;5006229;28;20046;-75
2021/09/17 03:46:41;;;;;;;2.78;2.35;;;24.90;54.30;;;;;;5010967;28;20052;-80
2021/09/17 03:49:08;;;;;;;3.38;2.70;;;24.90;54.30;;;;;;5004546;28;20206;-78
2021/09/17 03:51:36;;;;;;;4.20;3.15;;;24.90;54.30;;;;;;5000212;28;20144;-78
2021/09/17 03:54:03;;;;;;;2.90;2.60;;;24.90;54.30;;;;;;5010691;28;20129;-75
2021/09/17 03:56:30;;;;;;;4.20;2.35;;;24.90;54.30;;;;;;5010524;28;20057;-78
2021/09/17 03:58:57;;;;;;;4.05;2.70;;;24.90;54.30;;;;;;5010766;28;20500;-78
2021/09/17 04:01:24;;;;;;;3.25;2.83;;;24.90;54.30;;;;;;4999665;28;20129;-75
2021/09/17 04:03:52;;;;;;;2.85;2.65;;;24.90;54.40;;;;;;5010652;28;20065;-78
2021/09/17 04:06:19;;;;;;;5.32;2.92;;;24.80;54.30;;;;;;5010575;28;20172;-79
2021/09/17 04:08:46;;;;;;;2.35;2.15;;;24.80;54.30;;;;;;5009534;28;20052;-78
2021/09/17 04:11:42;;;;;;;3.95;2.35;;;24.80;54.30;;;;;;5007678;28;20114;-78
2021/09/17 04:14:09;;;;;;;3.05;2.28;;;24.80;54.30;;;;;;4992648;28;20073;-78
2021/09/17 04:16:36;;;;;;;7.80;2.70;;;24.80;54.30;;;;;;4994297;28;20046;-78
2021/09/17 04:19:04;;;;;;;5.88;2.75;;;24.80;54.40;;;;;;4988155;28;20123;-79
2021/09/17 04:21:31;;;;;;;3.28;2.65;;;24.80;54.40;;;;;;5009032;28;20117;-77
2021/09/17 04:23:59;;;;;;;4.63;2.60;;;24.80;54.40;;;;;;5013943;28;20038;-76
2021/09/17 04:26:26;;;;;;;3.25;2.50;;;24.80;54.40;;;;;;4996233;28;20113;-78
2021/09/17 04:28:53;;;;;;;3.40;2.60;;;24.80;54.40;;;;;;5012388;28;20120;-78
2021/09/17 04:31:20;;;;;;;2.80;2.40;;;24.80;54.50;;;;;;4994112;28;20136;-75
2021/09/17 04:33:47;;;;;;;3.72;2.65;;;24.80;54.50;;;;;;5014227;28;20507;-78
2021/09/17 04:37:05;;;;;;;2.83;2.50;;;24.80;54.50;;;;;;5003768;28;20046;-78
2021/09/17 04:39:32;;;;;;;3.78;3.42;;;24.80;54.50;;;;;;4984257;28;20452;-77
2021/09/17 04:41:59;;;;;;;7.10;2.88;;;24.80;54.60;;;;;;4980716;28;20615;-76
2021/09/17 04:44:26;;;;;;;3.67;2.55;;;24.80;54.60;;;;;;4997422;28;20076;-79
2021/09/17 04:46:53;;;;;;;3.47;2.65;;;24.90;54.70;;;;;;5002660;28;20052;-78
2021/09/17 04:49:20;;;;;;;3.35;3.05;;;24.90;54.60;;;;;;4999180;28;20096;-78
2021/09/17 04:51:48;;;;;;;3.28;2.95;;;24.90;54.70;;;;;;4994383;28;20239;-78
2021/09/17 04:54:16;;;;;;;3.83;2.92;;;24.90;54.70;;;;;;4998693;28;20125;-76
2021/09/17 04:56:43;;;;;;;4.13;2.70;;;24.90;54.70;;;;;;4992625;28;20077;-78
2021/09/17 04:59:11;;;;;;;3.55;3.00;;;24.90;54.70;;;;;;5005496;28;20157;-78
2021/09/17 05:01:38;;;;;;;3.78;3.35;;;24.90;54.70;;;;;;4995105;28;20044;-78
2021/09/17 05:04:06;;;;;;;2.88;2.60;;;24.90;54.70;;;;;;4995392;28;20246;-78
2021/09/17 05:06:33;;;;;;;2.78;2.58;;;24.90;54.70;;;;;;4999067;28;20122;-77
2021/09/17 05:09:00;;;;;;;5.53;2.65;;;24.90;54.60;;;;;;4999837;28;20060;-77
2021/09/17 05:11:28;;;;;;;3.30;3.00;;;24.90;54.80;;;;;;4993329;28;20080;-78
2021/09/17 05:13:57;;;;;;;3.50;2.83;;;24.90;55.00;;;;;;5004282;28;20438;-78
2021/09/17 05:16:24;;;;;;;2.67;2.47;;;24.90;55.00;;;;;;5007508;28;20077;-77
2021/09/17 05:18:51;;;;;;;4.32;2.95;;;24.80;55.10;;;;;;5006983;28;20065;-78
2021/09/17 05:21:18;;;;;;;8.18;2.88;;;24.80;55.20;;;;;;4985657;28;20436;-66
2021/09/17 05:23:45;;;;;;;6.30;2.80;;;24.70;55.40;;;;;;4999967;28;20121;-66
2021/09/17 05:26:13;;;;;;;6.40;2.92;;;24.70;55.80;;;;;;5017279;28;20049;-71
2021/09/17 05:28:40;;;;;;;7.43;3.85;;;24.60;56.10;;;;;;5017014;28;20133;-71
2021/09/17 05:31:07;;;;;;;10.00;3.90;;;24.50;56.80;;;;;;5014356;28;20049;-73
2021/09/17 05:33:34;;;;;;;7.65;3.90;;;24.30;57.50;;;;;;5017094;28;20046;-71
2021/09/17 05:36:01;;;;;;;12.00;4.75;;;24.20;57.90;;;;;;5016811;28;20077;-72
2021/09/17 05:38:28;;;;;;;9.23;3.70;;;24.00;58.10;;;;;;5016989;28;20501;-71
2021/09/17 05:40:55;;;;;;;5.38;3.38;;;23.80;58.50;;;;;;5013336;28;20141;-70
2021/09/17 05:43:22;;;;;;;7.20;2.70;;;23.60;58.60;;;;;;5016482;28;20049;-74
2021/09/17 05:45:49;;;;;;;3.83;2.83;;;23.50;59.30;;;;;;5016908;28;20041;-67
2021/09/17 05:48:16;;;;;;;5.25;2.28;;;23.30;59.30;;;;;;5016965;28;20050;-66
2021/09/17 05:50:43;;;;;;;2.50;2.03;;;23.20;59.80;;;;;;5015915;28;20140;-71
2021/09/17 05:53:10;;;;;;;2.17;1.50;;;23.10;59.90;;;;;;5015935;28;20089;-68
2021/09/17 05:55:37;;;;;;;1.30;0.77;;;23.00;60.00;;;;;;4999078;28;20042;-71
2021/09/17 05:58:04;;;;;;;1.13;0.70;;;22.90;60.00;;;;;;5002639;28;20483;-68
2021/09/17 06:00:31;;;;;;;1.38;0.90;;;22.80;60.60;;;;;;5002058;28;20085;-68
2021/09/17 06:02:59;;;;;;;1.00;0.70;;;22.70;60.40;;;;;;4993592;28;20078;-67
2021/09/17 06:05:26;;;;;;;0.70;0.70;;;22.60;60.40;;;;;;5003160;28;20144;-68
2021/09/17 06:07:53;;;;;;;2.00;1.05;;;22.50;60.60;;;;;;4995283;28;20076;-68
2021/09/17 06:10:20;;;;;;;1.30;0.88;;;22.40;61.00;;;;;;4997476;28;20627;-68
2021/09/17 06:12:48;;;;;;;1.00;0.90;;;22.30;61.10;;;;;;4988530;28;20159;-71
2021/09/17 06:15:16;;;;;;;1.73;0.70;;;22.20;61.30;;;;;;5001475;28;20116;-66
2021/09/17 06:17:45;;;;;;;1.50;0.93;;;22.20;61.10;;;;;;5002927;28;20046;-68
2021/09/17 06:20:49;;;;;;;0.80;0.70;;;22.10;61.40;;;;;;4979691;28;20037;-67
2021/09/17 06:23:17;;;;;;;2.25;0.50;;;22.00;62.00;;;;;;4989999;28;20046;-67
2021/09/17 06:25:45;;;;;;;0.35;0.32;;;21.90;61.60;;;;;;5003057;28;20045;-64
2021/09/17 06:28:12;;;;;;;1.05;0.40;;;21.90;61.80;;;;;;5000111;28;20139;-66
2021/09/17 06:31:08;;;;;;;0.30;0.30;;;21.80;61.60;;;;;;4993826;28;20570;-64
2021/09/17 06:33:36;;;;;;;0.30;0.30;;;21.70;61.60;;;;;;4993635;28;20179;-66
2021/09/17 06:36:03;;;;;;;0.98;0.50;;;21.70;61.80;;;;;;4999716;28;20558;-70
2021/09/17 06:38:30;;;;;;;0.50;0.50;;;21.60;62.10;;;;;;5000639;28;20155;-67
2021/09/17 06:40:58;;;;;;;1.00;0.60;;;21.60;61.60;;;;;;4990058;28;20090;-70
2021/09/17 06:43:25;;;;;;;0.95;0.60;;;21.50;61.60;;;;;;4992532;28;20125;-65
2021/09/17 06:45:53;;;;;;;0.47;0.47;;;21.50;62.30;;;;;;5001668;28;20080;-70
2021/09/17 06:48:20;;;;;;;0.57;0.55;;;21.40;62.40;;;;;;5004388;28;20048;-74
2021/09/17 06:50:47;;;;;;;0.50;0.40;;;21.40;62.30;;;;;;4999938;28;20060;-71
2021/09/17 06:53:14;;;;;;;3.25;0.30;;;21.40;62.00;;;;;;4997844;28;20106;-65
2021/09/17 06:55:41;;;;;;;0.55;0.40;;;21.40;61.90;;;;;;4989017;28;20113;-66
2021/09/17 06:58:09;;;;;;;0.28;0.20;;;21.40;61.60;;;;;;5004781;28;21893;-70
2021/09/17 07:00:40;;;;;;;2.05;0.30;;;21.40;61.30;;;;;;4998330;28;20092;-62
2021/09/17 07:03:07;;;;;;;1.48;0.38;;;21.40;61.40;;;;;;4994760;28;20123;-65
2021/09/17 07:05:35;;;;;;;2.65;0.40;;;21.40;61.40;;;;;;5005262;28;20045;-67
2021/09/17 07:08:07;;;;;;;1.63;0.45;;;21.50;61.60;;;;;;5004556;28;20130;-66
2021/09/17 07:10:37;;;;;;;0.98;0.40;;;21.50;61.00;;;;;;5001667;28;20121;-64
2021/09/17 07:13:05;;;;;;;0.40;0.30;;;21.40;61.00;;;;;;4994231;28;20093;-67
2021/09/17 07:15:33;;;;;;;1.77;0.50;;;21.50;61.10;;;;;;5004763;28;20069;-67
2021/09/17 07:18:04;;;;;;;0.30;0.30;;;21.50;61.80;;;;;;5009304;28;20049;-67
2021/09/17 07:20:33;;;;;;;2.83;0.60;;;21.50;61.30;;;;;;5003150;28;20046;-65
2021/09/17 07:23:03;;;;;;;0.80;0.50;;;21.50;61.70;;;;;;4997893;28;20125;-68
2021/09/17 07:25:31;;;;;;;1.58;0.50;;;21.50;61.40;;;;;;5007262;28;20535;-75
2021/09/17 07:27:59;;;;;;;1.15;0.57;;;21.50;62.00;;;;;;5007728;28;20077;-74
2021/09/17 07:30:26;;;;;;;0.70;0.70;;;21.50;61.50;;;;;;5001882;28;20057;-78
2021/09/17 07:32:53;;;;;;;1.67;0.77;;;21.50;60.90;;;;;;5001619;28;20052;-71
2021/09/17 07:35:21;;;;;;;0.60;0.60;;;21.50;61.40;;;;;;5002972;28;20129;-75
2021/09/17 07:37:49;;;;;;;0.80;0.60;;;21.50;61.10;;;;;;5006678;28;20136;-74
2021/09/17 07:40:57;;;;;;;1.20;0.90;;;21.50;60.70;;;;;;4981495;28;20156;-72
2021/09/17 07:43:37;;;;;;;0.80;0.57;;;21.40;61.00;;;;;;4988656;28;20054;-71
2021/09/17 07:46:05;;;;;;;0.98;0.98;;;21.40;61.50;;;;;;5001499;28;20964;-73
2021/09/17 07:48:33;;;;;;;0.70;0.68;;;21.40;61.10;;;;;;5004195;28;20053;-78
2021/09/17 07:51:00;;;;;;;3.22;1.13;;;21.40;61.00;;;;;;4978511;28;20054;-75
2021/09/17 07:53:56;;;;;;;1.05;0.73;;;21.40;61.60;;;;;;5003204;28;20049;-74
2021/09/17 07:56:23;;;;;;;1.75;1.27;;;21.40;61.60;;;;;;5001342;28;20053;-76
2021/09/17 07:58:50;;;;;;;5.28;0.90;;;21.40;60.80;;;;;;5003709;28;20085;-71
2021/09/17 08:01:49;;;;;;;0.73;0.73;;;21.40;60.90;;;;;;4999380;28;20819;-73
2021/09/17 08:04:18;;;;;;;2.08;0.95;;;21.40;60.70;;;;;;4997655;28;20490;-74
2021/09/17 08:06:45;;;;;;;1.15;1.08;;;21.50;60.20;;;;;;4997813;28;20046;-73
2021/09/17 08:09:12;;;;;;;0.73;0.73;;;21.50;59.80;;;;;;5002397;28;20145;-75
2021/09/17 08:11:39;;;;;;;0.68;0.68;;;21.50;60.10;;;;;;4989277;28;20661;-74
2021/09/17 08:14:07;;;;;;;2.30;0.93;;;21.50;60.30;;;;;;4994187;28;20178;-70
2021/09/17 08:16:35;;;;;;;0.90;0.88;;;21.60;59.70;;;;;;4981383;28;20436;-71
2021/09/17 08:19:03;;;;;;;0.98;0.90;;;21.60;59.30;;;;;;5004238;28;20049;-70
2021/09/17 08:21:30;;;;;;;0.80;0.80;;;21.70;59.60;;;;;;4993148;28;20096;-71
2021/09/17 08:23:58;;;;;;;2.33;0.73;;;21.70;59.60;;;;;;4995610;28;20049;-67
2021/09/17 08:26:25;;;;;;;1.95;1.58;;;21.70;58.90;;;;;;4998982;28;20085;-66
2021/09/17 08:28:53;;;;;;;2.33;0.98;;;21.80;58.80;;;;;;5003363;28;20046;-64
2021/09/17 08:31:44;;;;;;;1.02;0.95;;;21.80;59.10;;;;;;4993100;28;20132;-67
2021/09/17 08:34:11;;;;;;;1.02;0.95;;;21.80;59.20;;;;;;4997030;28;20511;-68
2021/09/17 08:36:38;;;;;;;1.08;1.02;;;21.80;58.80;;;;;;5001237;28;20052;-67
2021/09/17 08:39:08;;;;;;;2.33;1.10;;;21.80;58.90;;;;;;5003994;28;20133;-67
2021/09/17 08:41:46;;;;;;;1.02;0.93;;;21.90;58.90;;;;;;4995646;28;20044;-66
2021/09/17 08:44:15;;;;;;;3.42;1.40;;;21.90;58.60;;;;;;4998289;28;20052;-69
2021/09/17 08:46:43;;;;;;;1.23;1.10;;;21.90;58.20;;;;;;4986941;28;20129;-66
2021/09/17 08:49:12;;;;;;;1.50;1.40;;;21.90;58.40;;;;;;5003030;28;20042;-65
2021/09/17 08:51:44;;;;;;;4.70;1.30;;;21.90;58.60;;;;;;4996509;28;20077;-68
2021/09/17 08:54:11;;;;;;;1.40;1.30;;;21.80;58.60;;;;;;4998489;28;20049;-69
2021/09/17 08:56:38;;;;;;;1.35;1.20;;;21.80;58.10;;;;;;4984904;28;20136;-69
2021/09/17 08:59:06;;;;;;;1.10;1.10;;;21.80;58.60;;;;;;5004555;28;20116;-66
2021/09/17 09:01:43;;;;;;;3.60;1.30;;;21.70;58.70;;;;;;4992934;28;20038;-65
2021/09/17 09:04:13;;;;;;;3.33;1.70;;;21.70;58.60;;;;;;5000049;28;20132;-69
2021/09/17 09:06:42;;;;;;;1.65;1.45;;;21.70;58.20;;;;;;4999371;28;20046;-71
2021/09/17 09:09:16;;;;;;;1.77;1.20;;;21.70;58.50;;;;;;4983532;28;20050;-71
2021/09/17 09:11:48;;;;;;;1.58;1.40;;;21.70;58.70;;;;;;4995145;28;20706;-72
2021/09/17 09:14:16;;;;;;;1.90;1.42;;;21.70;58.50;;;;;;4997649;28;20096;-70
2021/09/17 09:16:49;;;;;;;1.40;1.30;;;21.70;57.90;;;;;;5003353;28;20311;-73
2021/09/17 09:26:15;;;;;;;2.45;1.25;;;21.70;58.50;;;;;;5017871;28;19956;-74
2021/09/17 09:28:44;;;;;;;1.98;1.50;;;21.80;57.90;;;;;;5000659;28;20133;-75
2021/09/17 09:31:14;;;;;;;1.40;1.20;;;21.70;58.10;;;;;;5017551;28;20518;-71
2021/09/17 09:33:43;;;;;;;1.50;1.30;;;21.70;58.20;;;;;;5017875;28;20124;-71
2021/09/17 09:36:15;;;;;;;1.52;1.42;;;21.70;58.60;;;;;;5017527;28;20366;-73
2021/09/17 09:38:46;;;;;;;1.52;1.40;;;21.70;57.70;;;;;;5018005;28;20050;-74
2021/09/17 09:41:20;;;;;;;1.70;1.23;;;21.70;58.10;;;;;;5017847;28;20046;-73
2021/09/17 09:43:56;;;;;;;1.70;1.10;;;21.70;58.40;;;;;;5017833;28;20077;-75
2021/09/17 09:46:41;;;;;;;1.80;1.70;;;21.70;58.70;;;;;;5017689;28;20060;-75
2021/09/17 09:49:22;;;;;;;1.70;1.60;;;21.70;58.80;;;;;;5022559;28;20060;-75
2021/09/17 09:51:56;;;;;;;1.70;1.60;;;21.80;59.10;;;;;;5015159;28;20046;-75
2021/09/17 09:54:27;;;;;;;2.67;1.63;;;21.80;59.20;;;;;;4998867;28;20253;-72
2021/09/17 09:56:55;;;;;;;1.60;1.40;;;21.80;58.90;;;;;;5003791;28;20054;-73
2021/09/17 09:59:26;;;;;;;2.53;1.48;;;21.80;59.10;;;;;;5001622;28;20085;-71
2021/09/17 10:01:58;;;;;;;1.60;1.50;;;21.90;59.20;;;;;;4993251;28;20037;-70
2021/09/17 10:04:27;;;;;;;2.53;2.13;;;21.90;59.10;;;;;;5001685;28;20042;-68
2021/09/17 10:07:07;;;;;;;1.80;1.70;;;21.90;58.80;;;;;;4998739;28;20064;-65
2021/09/17 10:09:37;;;;;;;4.18;2.20;;;21.90;58.50;;;;;;5003565;28;20454;-66
2021/09/17 10:12:05;;;;;;;2.35;2.15;;;21.90;58.00;;;;;;4994491;28;20147;-66
2021/09/17 10:14:36;;;;;;;3.03;1.90;;;21.90;57.70;;;;;;4998577;28;20073;-70
2021/09/17 10:17:05;;;;;;;;;;;21.90;58.20;;;;;;4998072;28;20044;-67
2021/09/17 10:19:33;;;;;;;2.22;2.13;;;22.00;58.20;;;;;;4998101;28;20270;-70
2021/09/17 10:22:02;;;;;;;2.08;1.88;;;22.00;57.70;;;;;;4993940;28;20069;-68
2021/09/17 10:24:35;;;;;;;2.92;2.28;;;22.00;58.00;;;;;;4999857;28;20129;-65
2021/09/17 10:27:23;;;;;;;2.35;2.20;;;22.00;57.60;;;;;;5002887;28;20105;-65
2021/09/17 10:29:59;;;;;;;2.42;2.30;;;21.90;56.70;;;;;;5001090;28;20058;-65
2021/09/17 10:32:43;;;;;;;4.18;2.10;;;22.00;56.60;;;;;;4990907;28;20054;-66
2021/09/17 10:35:22;;;;;;;2.67;2.30;;;21.90;56.60;;;;;;4998143;28;20046;-69
2021/09/17 10:38:05;;;;;;;3.15;2.33;;;21.90;56.70;;;;;;4996672;28;20136;-73
2021/09/17 10:41:05;;;;;;;2.53;2.20;;;21.90;56.40;;;;;;4991308;28;20066;-71
2021/09/17 10:43:58;;;;;;;2.95;2.28;;;21.80;56.80;;;;;;5001155;28;20139;-70
2021/09/17 10:46:32;;;;;;;2.20;2.10;;;21.80;56.90;;;;;;5003066;28;20553;-70
2021/09/17 10:49:00;;;;;;;4.45;2.72;;;21.80;56.30;;;;;;5006056;28;20509;-77
2021/09/17 10:51:39;;;;;;;2.70;2.50;;;21.80;56.50;;;;;;4993301;28;20053;-74
2021/09/17 10:54:19;;;;;;;4.38;3.17;;;21.70;56.90;;;;;;5003696;28;20206;-74
2021/09/17 10:57:03;;;;;;;2.90;2.67;;;21.70;56.40;;;;;;5007378;28;20077;-75
2021/09/17 10:59:41;;;;;;;5.13;3.00;;;21.70;56.10;;;;;;5005188;28;20060;-75
2021/09/17 11:02:10;;;;;;;2.85;2.60;;;21.70;56.90;;;;;;4994611;28;20147;-75
2021/09/17 11:04:46;;;;;;;3.53;3.22;;;21.60;56.60;;;;;;4998825;28;20054;-80
2021/09/17 11:07:34;;;;;;;2.55;2.28;;;21.60;56.50;;;;;;5003115;28;20037;-72
2021/09/17 11:10:05;;;;;;;2.90;2.60;;;21.60;56.70;;;;;;4989558;28;20046;-79
2021/09/17 11:12:34;;;;;;;2.83;2.63;;;21.60;56.90;;;;;;4997508;28;20049;-65
2021/09/17 11:15:16;;;;;;;2.47;2.25;;;21.60;56.80;;;;;;5005083;28;20112;-65
2021/09/17 11:17:55;;;;;;;;;;;21.50;56.70;;;;;;5007152;28;20070;-68
2021/09/17 11:20:25;;;;;;;2.13;2.00;;;21.50;57.00;;;;;;5001767;28;19927;-66
2021/09/17 11:23:07;;;;;;;2.78;2.03;;;21.50;57.20;;;;;;4991507;28;20370;-67
2021/09/17 11:25:43;;;;;;;2.15;2.05;;;21.50;57.40;;;;;;4984334;28;20146;-66
2021/09/17 11:28:28;;;;;;;5.38;2.85;;;21.60;56.80;;;;;;5005148;28;20701;-71
2021/09/17 11:31:32;;;;;;;3.13;2.15;;;21.60;56.70;;;;;;4996467;28;20381;-74
2021/09/17 11:34:05;;;;;;;2.25;2.05;;;21.60;57.20;;;;;;4997701;28;20056;-72
2021/09/17 11:36:42;;;;;;;3.67;1.98;;;21.70;56.90;;;;;;4999904;28;20081;-70
2021/09/17 11:39:25;;;;;;;2.10;2.00;;;21.70;56.90;;;;;;5004422;28;20566;-73
2021/09/17 11:42:04;;;;;;;2.10;2.00;;;21.70;57.00;;;;;;4987420;28;20164;-74
2021/09/17 11:44:36;;;;;;;2.22;1.80;;;21.80;56.70;;;;;;4999162;28;20535;-69
2021/09/17 11:47:07;;;;;;;2.20;2.00;;;21.80;56.00;;;;;;5003651;28;20137;-72
2021/09/17 11:49:41;;;;;;;1.90;1.80;;;21.80;56.10;;;;;;5005138;28;20056;-67
2021/09/17 11:52:11;;;;;;;3.03;1.90;;;21.80;56.20;;;;;;4997408;28;20139;-67
2021/09/17 11:54:38;;;;;;;1.87;1.40;;;21.90;55.90;;;;;;5019444;28;20136;-69
2021/09/17 11:57:11;;;;;;;2.15;1.98;;;21.90;55.40;;;;;;5019775;28;20554;-71
2021/09/17 11:59:43;;;;;;;2.22;2.08;;;21.90;55.70;;;;;;5019263;28;20129;-68
2021/09/17 12:02:19;;;;;;;1.90;1.80;;;21.90;55.80;;;;;;5019525;28;20069;-71
2021/09/17 12:04:58;;;;;;;4.25;1.65;;;21.90;55.60;;;;;;5018915;28;20077;-75
2021/09/17 12:07:26;;;;;;;1.83;1.67;;;21.90;55.20;;;;;;5001031;28;20683;-72
2021/09/17 12:09:59;;;;;;;1.50;1.45;;;21.90;55.40;;;;;;5001923;28;20046;-72
2021/09/17 12:16:21;;;;;;;1.40;1.40;;;21.80;55.00;;;;;;5004969;28;20072;-73
2021/09/17 12:19:03;;;;;;;1.67;1.58;;;21.80;55.20;;;;;;5005397;28;20129;-77
2021/09/17 12:21:31;;;;;;;1.60;1.50;;;21.80;55.60;;;;;;4997448;28;20129;-72
2021/09/17 12:24:23;;;;;;;2.10;1.80;;;21.70;55.30;;;;;;4996974;28;20038;-71
2021/09/17 12:26:59;;;;;;;3.20;1.25;;;21.70;55.10;;;;;;5008423;28;20138;-74
2021/09/17 12:29:26;;;;;;;1.63;1.52;;;21.70;55.30;;;;;;5012166;28;20084;-71
2021/09/17 12:31:53;;;;;;;2.42;1.52;;;21.70;55.60;;;;;;4997315;28;20071;-73
2021/09/17 12:34:22;;;;;;;1.65;1.55;;;21.70;55.70;;;;;;5009353;28;20056;-73
2021/09/17 12:36:52;;;;;;;1.80;1.50;;;21.70;55.40;;;;;;5008523;28;20085;-76
2021/09/17 12:39:25;;;;;;;2.05;1.60;;;21.60;55.60;;;;;;5005469;28;20146;-74
2021/09/17 12:42:07;;;;;;;3.78;1.80;;;21.60;55.60;;;;;;4994609;28;20054;-74
2021/09/17 12:44:43;;;;;;;3.00;1.80;;;21.60;55.20;;;;;;5002412;28;20128;-74
2021/09/17 12:47:11;;;;;;;1.65;1.55;;;21.60;55.20;;;;;;5000199;28;20070;-74
2021/09/17 12:49:38;;;;;;;1.80;1.70;;;21.60;55.40;;;;;;4999297;28;20106;-75
2021/09/17 12:52:07;;;;;;;1.85;1.73;;;21.60;55.70;;;;;;4990472;28;20109;-74
2021/09/17 12:54:37;;;;;;;1.60;1.50;;;21.60;55.60;;;;;;5004023;28;20050;-72
2021/09/17 12:57:26;;;;;;;1.43;1.40;;;21.60;55.20;;;;;;5007543;28;20104;-74
2021/09/17 13:00:00;;;;;;;1.95;1.80;;;21.60;55.40;;;;;;5003262;28;20136;-73
2021/09/17 13:02:28;;;;;;;3.15;1.42;;;21.50;55.70;;;;;;5003298;28;20503;-74
2021/09/17 13:05:04;;;;;;;5.22;2.05;;;21.50;55.50;;;;;;5018797;28;20140;-74
2021/09/17 13:10:45;;;;;;;2.08;1.80;;;21.50;55.40;;;;;;5000294;28;20100;-73
2021/09/17 13:13:13;;;;;;;1.77;1.67;;;21.50;55.60;;;;;;5006489;28;20583;-73
2021/09/17 13:15:40;;;;;;;1.50;1.50;;;21.50;55.90;;;;;;5002609;28;20129;-74
2021/09/17 13:18:08;;;;;;;2.35;2.05;;;21.50;55.60;;;;;;5000486;28;20057;-74
2021/09/17 13:24:00;;;;;;;1.92;1.83;;;21.40;55.90;;;;;;4997227;28;20042;-75